createdAt,value
2019-01-02T00:00:23.417Z,1004.48
2019-01-02T00:01:23.342Z,1004.47
2019-01-02T00:02:23.267Z,1004.48
2019-01-02T00:03:23.181Z,1004.52
2019-01-02T00:04:23.104Z,1004.55
2019-01-02T00:05:23.030Z,1004.47
2019-01-02T00:06:22.947Z,1004.44
2019-01-02T00:07:22.872Z,1004.49
2019-01-02T00:08:22.830Z,1004.57
2019-01-02T00:09:22.722Z,1004.52
2019-01-02T00:10:22.656Z,1004.45
2019-01-02T00:11:22.553Z,1004.52
2019-01-02T00:12:22.490Z,1004.56
2019-01-02T00:13:22.410Z,1004.53
2019-01-02T00:14:22.329Z,1004.55
2019-01-02T00:15:22.256Z,1004.55
2019-01-02T00:16:22.176Z,1004.54
2019-01-02T00:17:22.104Z,1004.59
2019-01-02T00:18:22.025Z,1004.62
2019-01-02T00:19:21.937Z,1004.51
2019-01-02T00:20:21.864Z,1004.52
2019-01-02T00:21:21.786Z,1004.55
2019-01-02T00:22:21.712Z,1004.54
2019-01-02T00:23:21.632Z,1004.54
2019-01-02T00:24:21.574Z,1004.51
2019-01-02T00:25:21.474Z,1004.58
2019-01-02T00:26:21.403Z,1004.58
2019-01-02T00:27:21.326Z,1004.60
2019-01-02T00:28:21.241Z,1004.59
2019-01-02T00:29:21.157Z,1004.69
2019-01-02T00:30:21.114Z,1004.71
2019-01-02T00:31:21.016Z,1004.70
2019-01-02T00:32:20.929Z,1004.72
2019-01-02T00:33:20.861Z,1004.66
2019-01-02T00:34:20.799Z,1004.72
2019-01-02T00:35:20.719Z,1004.70
2019-01-02T00:36:20.625Z,1004.70
2019-01-02T00:37:20.550Z,1004.72
2019-01-02T00:38:20.468Z,1004.73
2019-01-02T00:39:20.396Z,1004.72
2019-01-02T00:40:20.315Z,1004.76
2019-01-02T00:41:20.236Z,1004.75
2019-01-02T00:42:20.148Z,1004.77
2019-01-02T00:43:20.069Z,1004.70
2019-01-02T00:44:20.000Z,1004.71
2019-01-02T00:45:22.357Z,1004.71
2019-01-02T00:46:19.846Z,1004.72
2019-01-02T00:47:19.778Z,1004.75
2019-01-02T00:48:19.687Z,1004.69
2019-01-02T00:49:19.607Z,1004.66
2019-01-02T00:50:19.532Z,1004.74
2019-01-02T00:51:19.457Z,1004.72
2019-01-02T00:52:19.406Z,1004.68
2019-01-02T00:53:19.303Z,1004.69
2019-01-02T00:54:19.228Z,1004.61
2019-01-02T00:55:19.146Z,1004.66
2019-01-02T00:56:19.072Z,1004.61
2019-01-02T00:57:18.997Z,1004.66
2019-01-02T00:58:18.917Z,1004.71
2019-01-02T00:59:18.838Z,1004.69
2019-01-02T01:00:18.761Z,1004.74
2019-01-02T01:01:18.685Z,1004.73
2019-01-02T01:02:18.648Z,1004.73
2019-01-02T01:03:18.529Z,1004.68
2019-01-02T01:04:18.484Z,1004.76
2019-01-02T01:05:18.384Z,1004.74
2019-01-02T01:06:18.297Z,1004.69
2019-01-02T01:07:18.222Z,1004.72
2019-01-02T01:08:18.148Z,1004.66
2019-01-02T01:09:18.078Z,1004.75
2019-01-02T01:10:17.986Z,1004.72
2019-01-02T01:11:17.912Z,1004.75
2019-01-02T01:12:17.832Z,1004.78
2019-01-02T01:13:17.747Z,1004.80
2019-01-02T01:14:17.674Z,1004.74
2019-01-02T01:15:17.594Z,1004.73
2019-01-02T01:16:17.524Z,1004.73
2019-01-02T01:17:17.477Z,1004.70
2019-01-02T01:18:17.371Z,1004.71
2019-01-02T01:19:17.293Z,1004.73
2019-01-02T01:20:17.210Z,1004.73
2019-01-02T01:21:17.175Z,1004.73
2019-01-02T01:22:17.056Z,1004.79
2019-01-02T01:23:16.976Z,1004.72
2019-01-02T01:24:16.903Z,1004.68
2019-01-02T01:25:16.829Z,1004.71
2019-01-02T01:26:16.748Z,1004.67
2019-01-02T01:27:16.667Z,1004.69
2019-01-02T01:28:16.596Z,1004.68
2019-01-02T01:29:16.512Z,1004.68
2019-01-02T01:30:16.437Z,1004.67
2019-01-02T01:31:16.367Z,1004.69
2019-01-02T01:32:16.278Z,1004.64
2019-01-02T01:33:16.200Z,1004.66
2019-01-02T01:34:16.122Z,1004.64
2019-01-02T01:35:16.055Z,1004.66
2019-01-02T01:36:15.984Z,1004.68
2019-01-02T01:37:15.893Z,1004.67
2019-01-02T01:38:15.813Z,1004.67
2019-01-02T01:39:15.743Z,1004.65
2019-01-02T01:40:15.656Z,1004.68
2019-01-02T01:41:15.592Z,1004.66
2019-01-02T01:42:15.529Z,1004.63
2019-01-02T01:43:15.427Z,1004.56
2019-01-02T01:44:15.351Z,1004.58
2019-01-02T01:45:15.273Z,1004.49
2019-01-02T01:46:15.198Z,1004.51
2019-01-02T01:47:15.113Z,1004.51
2019-01-02T01:48:15.042Z,1004.49
2019-01-02T01:49:14.965Z,1004.54
2019-01-02T01:50:14.886Z,1004.55
2019-01-02T01:51:14.809Z,1004.57
2019-01-02T01:52:14.734Z,1004.53
2019-01-02T01:53:14.652Z,1004.59
2019-01-02T01:54:14.574Z,1004.63
2019-01-02T01:55:14.500Z,1004.56
2019-01-02T01:56:14.420Z,1004.59
2019-01-02T01:57:14.345Z,1004.58
2019-01-02T01:58:14.262Z,1004.57
2019-01-02T01:59:14.179Z,1004.58
2019-01-02T02:00:14.112Z,1004.57
2019-01-02T02:01:14.032Z,1004.53
2019-01-02T02:02:13.950Z,1004.63
2019-01-02T02:03:13.880Z,1004.66
2019-01-02T02:04:13.801Z,1004.62
2019-01-02T02:05:13.723Z,1004.58
2019-01-02T02:06:13.648Z,1004.60
2019-01-02T02:07:13.572Z,1004.59
2019-01-02T02:08:13.488Z,1004.65
2019-01-02T02:09:13.411Z,1004.65
2019-01-02T02:10:13.336Z,1004.63
2019-01-02T02:11:13.256Z,1004.58
2019-01-02T02:12:13.183Z,1004.61
2019-01-02T02:13:13.108Z,1004.58
2019-01-02T02:14:13.024Z,1004.59
2019-01-02T02:15:12.944Z,1004.63
2019-01-02T02:16:12.868Z,1004.61
2019-01-02T02:17:12.792Z,1004.62
2019-01-02T02:18:12.717Z,1004.62
2019-01-02T02:19:12.645Z,1004.62
2019-01-02T02:20:12.570Z,1004.62
2019-01-02T02:21:12.484Z,1004.61
2019-01-02T02:22:12.412Z,1004.55
2019-01-02T02:23:12.329Z,1004.57
2019-01-02T02:24:12.252Z,1004.56
2019-01-02T02:25:12.180Z,1004.63
2019-01-02T02:26:12.099Z,1004.57
2019-01-02T02:27:12.020Z,1004.55
2019-01-02T02:28:11.951Z,1004.55
2019-01-02T02:29:11.868Z,1004.52
2019-01-02T02:30:11.795Z,1004.57
2019-01-02T02:31:11.705Z,1004.56
2019-01-02T02:32:11.637Z,1004.54
2019-01-02T02:33:11.555Z,1004.55
2019-01-02T02:34:11.484Z,1004.57
2019-01-02T02:35:11.406Z,1004.51
2019-01-02T02:36:11.328Z,1004.47
2019-01-02T02:37:11.248Z,1004.53
2019-01-02T02:38:11.223Z,1004.49
2019-01-02T02:39:11.095Z,1004.46
2019-01-02T02:40:11.018Z,1004.39
2019-01-02T02:41:10.929Z,1004.38
2019-01-02T02:42:10.860Z,1004.31
2019-01-02T02:43:10.789Z,1004.38
2019-01-02T02:44:10.707Z,1004.38
2019-01-02T02:45:10.639Z,1004.36
2019-01-02T02:46:10.553Z,1004.37
2019-01-02T02:47:10.473Z,1004.37
2019-01-02T02:48:10.397Z,1004.33
2019-01-02T02:49:10.322Z,1004.35
2019-01-02T02:50:10.251Z,1004.32
2019-01-02T02:51:10.172Z,1004.35
2019-01-02T02:52:10.097Z,1004.31
2019-01-02T02:53:10.018Z,1004.35
2019-01-02T02:54:09.926Z,1004.33
2019-01-02T02:55:09.863Z,1004.30
2019-01-02T02:56:09.790Z,1004.31
2019-01-02T02:57:09.711Z,1004.32
2019-01-02T02:58:09.631Z,1004.27
2019-01-02T02:59:09.559Z,1004.30
2019-01-02T03:00:09.476Z,1004.30
2019-01-02T03:01:09.402Z,1004.27
2019-01-02T03:02:09.329Z,1004.29
2019-01-02T03:03:09.251Z,1004.24
2019-01-02T03:04:09.169Z,1004.29
2019-01-02T03:05:09.092Z,1004.25
2019-01-02T03:06:09.017Z,1004.26
2019-01-02T03:07:08.939Z,1004.27
2019-01-02T03:08:08.860Z,1004.24
2019-01-02T03:09:08.780Z,1004.27
2019-01-02T03:10:08.711Z,1004.24
2019-01-02T03:11:08.629Z,1004.26
2019-01-02T03:12:08.556Z,1004.21
2019-01-02T03:13:08.481Z,1004.20
2019-01-02T03:14:08.399Z,1004.21
2019-01-02T03:15:08.328Z,1004.20
2019-01-02T03:16:08.245Z,1004.19
2019-01-02T03:17:08.165Z,1004.15
2019-01-02T03:18:08.083Z,1004.14
2019-01-02T03:19:08.010Z,1004.14
2019-01-02T03:20:07.940Z,1004.10
2019-01-02T03:21:07.867Z,1004.17
2019-01-02T03:22:07.789Z,1004.17
2019-01-02T03:23:07.718Z,1004.15
2019-01-02T03:24:07.632Z,1004.15
2019-01-02T03:25:07.572Z,1004.17
2019-01-02T03:26:07.478Z,1004.18
2019-01-02T03:27:07.398Z,1004.18
2019-01-02T03:28:07.319Z,1004.20
2019-01-02T03:29:07.240Z,1004.18
2019-01-02T03:30:07.162Z,1004.12
2019-01-02T03:31:07.089Z,1004.10
2019-01-02T03:32:07.009Z,1004.13
2019-01-02T03:33:06.937Z,1004.13
2019-01-02T03:34:06.883Z,1004.09
2019-01-02T03:35:06.782Z,1004.08
2019-01-02T03:36:06.701Z,1004.11
2019-01-02T03:37:06.630Z,1004.05
2019-01-02T03:38:06.549Z,1004.03
2019-01-02T03:39:06.471Z,1004.03
2019-01-02T03:40:06.388Z,1004.00
2019-01-02T03:41:06.320Z,1003.98
2019-01-02T03:42:06.244Z,1004.05
2019-01-02T03:43:06.163Z,1003.99
2019-01-02T03:44:06.092Z,1003.93
2019-01-02T03:45:06.007Z,1004.00
2019-01-02T03:46:05.930Z,1003.93
2019-01-02T03:47:05.897Z,1003.94
2019-01-02T03:48:05.787Z,1003.97
2019-01-02T03:49:05.697Z,1003.93
2019-01-02T03:50:05.623Z,1003.90
2019-01-02T03:51:05.551Z,1003.96
2019-01-02T03:52:05.474Z,1003.94
2019-01-02T03:53:05.433Z,1003.95
2019-01-02T03:54:05.314Z,1003.98
2019-01-02T03:55:05.234Z,1003.95
2019-01-02T03:56:05.166Z,1003.91
2019-01-02T03:57:05.094Z,1003.95
2019-01-02T03:58:05.010Z,1003.95
2019-01-02T03:59:05.017Z,1003.93
2019-01-02T04:00:04.848Z,1003.89
2019-01-02T04:01:04.787Z,1003.95
2019-01-02T04:02:04.727Z,1003.87
2019-01-02T04:03:04.627Z,1003.85
2019-01-02T04:04:04.554Z,1003.92
2019-01-02T04:05:04.457Z,1003.84
2019-01-02T04:06:04.390Z,1003.89
2019-01-02T04:07:04.314Z,1003.81
2019-01-02T04:08:04.237Z,1003.83
2019-01-02T04:09:04.161Z,1003.88
2019-01-02T04:10:04.085Z,1003.81
2019-01-02T04:11:03.996Z,1003.89
2019-01-02T04:12:03.975Z,1003.88
2019-01-02T04:13:03.850Z,1003.81
2019-01-02T04:14:03.778Z,1003.85
2019-01-02T04:15:03.695Z,1003.78
2019-01-02T04:16:03.652Z,1003.81
2019-01-02T04:17:03.539Z,1003.76
2019-01-02T04:18:03.464Z,1003.78
2019-01-02T04:19:03.393Z,1003.83
2019-01-02T04:20:03.312Z,1003.77
2019-01-02T04:21:03.239Z,1003.71
2019-01-02T04:22:03.164Z,1003.68
2019-01-02T04:23:03.083Z,1003.68
2019-01-02T04:24:02.990Z,1003.67
2019-01-02T04:25:02.924Z,1003.71
2019-01-02T04:26:02.847Z,1003.64
2019-01-02T04:27:02.776Z,1003.64
2019-01-02T04:28:02.696Z,1003.59
2019-01-02T04:29:02.646Z,1003.57
2019-01-02T04:30:02.542Z,1003.60
2019-01-02T04:31:02.474Z,1003.60
2019-01-02T04:32:02.388Z,1003.57
2019-01-02T04:33:02.310Z,1003.61
2019-01-02T04:34:02.231Z,1003.58
2019-01-02T04:35:02.156Z,1003.55
2019-01-02T04:36:02.116Z,1003.56
2019-01-02T04:37:01.998Z,1003.50
2019-01-02T04:38:01.924Z,1003.49
2019-01-02T04:39:01.840Z,1003.53
2019-01-02T04:40:01.772Z,1003.53
2019-01-02T04:41:01.694Z,1003.51
2019-01-02T04:42:01.618Z,1003.47
2019-01-02T04:43:01.534Z,1003.45
2019-01-02T04:44:01.465Z,1003.48
2019-01-02T04:45:01.403Z,1003.48
2019-01-02T04:46:01.309Z,1003.53
2019-01-02T04:47:01.230Z,1003.47
2019-01-02T04:48:01.152Z,1003.45
2019-01-02T04:49:01.092Z,1003.48
2019-01-02T04:50:01.008Z,1003.43
2019-01-02T04:51:00.932Z,1003.42
2019-01-02T04:52:00.856Z,1003.45
2019-01-02T04:53:00.772Z,1003.52
2019-01-02T04:54:00.693Z,1003.45
2019-01-02T04:55:00.642Z,1003.46
2019-01-02T04:56:00.582Z,1003.51
2019-01-02T04:57:00.457Z,1003.39
2019-01-02T04:58:00.414Z,1003.37
2019-01-02T04:59:00.309Z,1003.40
2019-01-02T05:00:00.256Z,1003.50
2019-01-02T05:01:00.152Z,1003.44
2019-01-02T05:02:00.076Z,1003.48
2019-01-02T05:03:00.007Z,1003.48
2019-01-02T05:03:59.931Z,1003.45
2019-01-02T05:04:59.852Z,1003.49
2019-01-02T05:05:59.766Z,1003.46
2019-01-02T05:06:59.694Z,1003.47
2019-01-02T05:07:59.621Z,1003.48
2019-01-02T05:08:59.541Z,1003.50
2019-01-02T05:09:59.464Z,1003.55
2019-01-02T05:10:59.386Z,1003.52
2019-01-02T05:11:59.310Z,1003.51
2019-01-02T05:12:59.228Z,1003.52
2019-01-02T05:13:59.156Z,1003.54
2019-01-02T05:14:59.078Z,1003.55
2019-01-02T05:15:59.009Z,1003.51
2019-01-02T05:16:58.930Z,1003.56
2019-01-02T05:17:58.856Z,1003.53
2019-01-02T05:18:58.761Z,1003.48
2019-01-02T05:19:58.692Z,1003.51
2019-01-02T05:20:58.643Z,1003.50
2019-01-02T05:21:58.543Z,1003.55
2019-01-02T05:22:58.467Z,1003.53
2019-01-02T05:23:58.386Z,1003.54
2019-01-02T05:24:58.322Z,1003.49
2019-01-02T05:25:58.230Z,1003.48
2019-01-02T05:26:58.152Z,1003.54
2019-01-02T05:27:58.077Z,1003.42
2019-01-02T05:28:58.008Z,1003.41
2019-01-02T05:29:57.948Z,1003.43
2019-01-02T05:30:57.856Z,1003.43
2019-01-02T05:31:57.775Z,1003.42
2019-01-02T05:32:57.695Z,1003.40
2019-01-02T05:33:57.628Z,1003.41
2019-01-02T05:34:57.538Z,1003.42
2019-01-02T05:35:57.463Z,1003.43
2019-01-02T05:36:57.386Z,1003.36
2019-01-02T05:37:57.306Z,1003.37
2019-01-02T05:38:57.246Z,1003.37
2019-01-02T05:39:57.159Z,1003.40
2019-01-02T05:40:57.079Z,1003.41
2019-01-02T05:41:57.000Z,1003.44
2019-01-02T05:42:56.925Z,1003.40
2019-01-02T05:43:56.851Z,1003.42
2019-01-02T05:44:56.775Z,1003.39
2019-01-02T05:45:56.688Z,1003.37
2019-01-02T05:46:56.621Z,1003.39
2019-01-02T05:47:56.578Z,1003.35
2019-01-02T05:48:56.467Z,1003.43
2019-01-02T05:49:56.391Z,1003.38
2019-01-02T05:50:56.316Z,1003.39
2019-01-02T05:51:56.234Z,1003.32
2019-01-02T05:52:56.152Z,1003.33
2019-01-02T05:53:56.080Z,1003.39
2019-01-02T05:54:56.007Z,1003.39
2019-01-02T05:55:55.926Z,1003.43
2019-01-02T05:56:55.850Z,1003.44
2019-01-02T05:57:55.773Z,1003.44
2019-01-02T05:58:55.694Z,1003.38
2019-01-02T05:59:55.622Z,1003.41
2019-01-02T06:00:55.540Z,1003.50
2019-01-02T06:01:55.469Z,1003.43
2019-01-02T06:02:55.389Z,1003.50
2019-01-02T06:03:55.302Z,1003.50
2019-01-02T06:04:55.226Z,1003.48
2019-01-02T06:05:55.155Z,1003.51
2019-01-02T06:06:55.086Z,1003.48
2019-01-02T06:07:54.999Z,1003.53
2019-01-02T06:08:54.925Z,1003.56
2019-01-02T06:09:54.855Z,1003.53
2019-01-02T06:10:54.776Z,1003.55
2019-01-02T06:11:54.693Z,1003.55
2019-01-02T06:12:54.621Z,1003.53
2019-01-02T06:13:54.542Z,1003.58
2019-01-02T06:14:54.467Z,1003.59
2019-01-02T06:15:54.394Z,1003.51
2019-01-02T06:16:54.308Z,1003.51
2019-01-02T06:17:54.245Z,1003.56
2019-01-02T06:18:54.165Z,1003.62
2019-01-02T06:19:54.090Z,1003.51
2019-01-02T06:20:54.001Z,1003.53
2019-01-02T06:21:53.930Z,1003.50
2019-01-02T06:22:53.849Z,1003.58
2019-01-02T06:23:53.775Z,1003.52
2019-01-02T06:24:53.706Z,1003.56
2019-01-02T06:25:53.625Z,1003.63
2019-01-02T06:26:53.546Z,1003.58
2019-01-02T06:27:53.464Z,1003.53
2019-01-02T06:28:53.399Z,1003.52
2019-01-02T06:29:53.312Z,1003.56
2019-01-02T06:30:53.231Z,1003.57
2019-01-02T06:31:53.164Z,1003.53
2019-01-02T06:32:53.088Z,1003.51
2019-01-02T06:33:52.995Z,1003.54
2019-01-02T06:34:52.928Z,1003.54
2019-01-02T06:35:52.857Z,1003.47
2019-01-02T06:36:52.777Z,1003.46
2019-01-02T06:37:52.699Z,1003.36
2019-01-02T06:38:52.622Z,1003.41
2019-01-02T06:39:52.546Z,1003.45
2019-01-02T06:40:52.475Z,1003.51
2019-01-02T06:41:52.392Z,1003.49
2019-01-02T06:42:52.315Z,1003.48
2019-01-02T06:43:52.262Z,1003.49
2019-01-02T06:44:52.165Z,1003.48
2019-01-02T06:45:52.090Z,1003.54
2019-01-02T06:46:52.033Z,1003.54
2019-01-02T06:47:51.926Z,1003.53
2019-01-02T06:48:51.856Z,1003.50
2019-01-02T06:49:51.773Z,1003.49
2019-01-02T06:50:51.700Z,1003.52
2019-01-02T06:51:51.628Z,1003.52
2019-01-02T06:52:51.549Z,1003.53
2019-01-02T06:53:51.467Z,1003.54
2019-01-02T06:54:51.392Z,1003.51
2019-01-02T06:55:51.315Z,1003.48
2019-01-02T06:56:51.237Z,1003.46
2019-01-02T06:57:51.161Z,1003.43
2019-01-02T06:58:51.088Z,1003.55
2019-01-02T06:59:51.020Z,1003.45
2019-01-02T07:00:50.927Z,1003.46
2019-01-02T07:01:50.860Z,1003.43
2019-01-02T07:02:50.781Z,1003.44
2019-01-02T07:03:50.701Z,1003.40
2019-01-02T07:04:50.634Z,1003.38
2019-01-02T07:05:50.557Z,1003.37
2019-01-02T07:06:50.503Z,1003.42
2019-01-02T07:07:50.401Z,1003.48
2019-01-02T07:08:50.333Z,1003.43
2019-01-02T07:09:50.244Z,1003.43
2019-01-02T07:10:50.163Z,1003.45
2019-01-02T07:11:50.083Z,1003.49
2019-01-02T07:12:50.015Z,1003.48
2019-01-02T07:13:49.931Z,1003.43
2019-01-02T07:14:49.859Z,1003.45
2019-01-02T07:15:49.789Z,1003.44
2019-01-02T07:16:49.705Z,1003.40
2019-01-02T07:17:49.614Z,1003.36
2019-01-02T07:18:49.551Z,1003.36
2019-01-02T07:19:49.471Z,1003.35
2019-01-02T07:20:49.396Z,1003.38
2019-01-02T07:21:49.305Z,1003.40
2019-01-02T07:22:49.229Z,1003.41
2019-01-02T07:23:49.162Z,1003.34
2019-01-02T07:24:49.088Z,1003.42
2019-01-02T07:25:49.010Z,1003.42
2019-01-02T07:26:48.929Z,1003.50
2019-01-02T07:27:48.856Z,1003.39
2019-01-02T07:28:48.781Z,1003.47
2019-01-02T07:29:48.718Z,1003.51
2019-01-02T07:30:48.631Z,1003.54
2019-01-02T07:31:48.552Z,1003.54
2019-01-02T07:32:48.481Z,1003.57
2019-01-02T07:33:48.406Z,1003.56
2019-01-02T07:34:48.383Z,1003.57
2019-01-02T07:35:48.242Z,1003.54
2019-01-02T07:36:48.191Z,1003.58
2019-01-02T07:37:48.093Z,1003.50
2019-01-02T07:38:48.009Z,1003.58
2019-01-02T07:39:47.981Z,1003.54
2019-01-02T07:40:47.864Z,1003.52
2019-01-02T07:41:47.800Z,1003.54
2019-01-02T07:42:47.701Z,1003.56
2019-01-02T07:43:47.639Z,1003.59
2019-01-02T07:44:47.551Z,1003.63
2019-01-02T07:45:47.476Z,1003.66
2019-01-02T07:46:47.403Z,1003.65
2019-01-02T07:47:47.317Z,1003.66
2019-01-02T07:48:47.250Z,1003.76
2019-01-02T07:49:47.178Z,1003.75
2019-01-02T07:50:47.094Z,1003.81
2019-01-02T07:51:47.016Z,1003.83
2019-01-02T07:52:46.940Z,1003.81
2019-01-02T07:53:46.861Z,1003.79
2019-01-02T07:54:46.789Z,1003.74
2019-01-02T07:55:46.710Z,1003.76
2019-01-02T07:56:46.637Z,1003.79
2019-01-02T07:57:46.552Z,1003.84
2019-01-02T07:58:46.495Z,1003.87
2019-01-02T07:59:46.391Z,1003.86
2019-01-02T08:00:46.317Z,1003.88
2019-01-02T08:01:46.248Z,1003.87
2019-01-02T08:02:46.173Z,1003.87
2019-01-02T08:03:46.097Z,1003.89
2019-01-02T08:04:46.024Z,1003.83
2019-01-02T08:05:45.944Z,1003.89
2019-01-02T08:06:45.867Z,1003.93
2019-01-02T08:07:45.798Z,1003.92
2019-01-02T08:08:45.714Z,1003.90
2019-01-02T08:09:45.636Z,1003.87
2019-01-02T08:10:45.563Z,1003.82
2019-01-02T08:11:45.514Z,1003.89
2019-01-02T08:12:45.412Z,1003.88
2019-01-02T08:13:45.334Z,1003.95
2019-01-02T08:14:45.260Z,1003.94
2019-01-02T08:15:45.182Z,1003.92
2019-01-02T08:16:45.180Z,1003.96
2019-01-02T08:17:45.029Z,1003.94
2019-01-02T08:18:44.952Z,1004.03
2019-01-02T08:19:44.881Z,1004.06
2019-01-02T08:20:44.806Z,1004.00
2019-01-02T08:21:44.734Z,1004.01
2019-01-02T08:22:44.646Z,1004.02
2019-01-02T08:23:45.885Z,1004.02
2019-01-02T08:24:44.498Z,1004.05
2019-01-02T08:25:44.424Z,1004.04
2019-01-02T08:26:44.344Z,1004.08
2019-01-02T08:27:44.278Z,1004.07
2019-01-02T08:28:44.189Z,1004.08
2019-01-02T08:29:44.127Z,1004.12
2019-01-02T08:30:44.039Z,1004.07
2019-01-02T08:31:43.972Z,1004.15
2019-01-02T08:32:43.898Z,1004.17
2019-01-02T08:33:43.821Z,1004.17
2019-01-02T08:34:43.745Z,1004.15
2019-01-02T08:35:43.692Z,1004.19
2019-01-02T08:36:43.597Z,1004.25
2019-01-02T08:37:43.516Z,1004.18
2019-01-02T08:38:43.446Z,1004.16
2019-01-02T08:39:43.368Z,1004.23
2019-01-02T08:40:43.294Z,1004.29
2019-01-02T08:41:43.216Z,1004.29
2019-01-02T08:42:43.169Z,1004.26
2019-01-02T08:43:43.072Z,1004.28
2019-01-02T08:44:42.988Z,1004.20
2019-01-02T08:45:42.918Z,1004.22
2019-01-02T08:46:42.839Z,1004.26
2019-01-02T08:47:42.774Z,1004.27
2019-01-02T08:48:42.690Z,1004.25
2019-01-02T08:49:42.617Z,1004.23
2019-01-02T08:50:42.535Z,1004.27
2019-01-02T08:51:42.466Z,1004.34
2019-01-02T08:52:42.394Z,1004.25
2019-01-02T08:53:42.324Z,1004.21
2019-01-02T08:54:42.243Z,1004.15
2019-01-02T08:55:42.194Z,1004.24
2019-01-02T08:56:42.090Z,1004.23
2019-01-02T08:57:42.019Z,1004.22
2019-01-02T08:58:41.950Z,1004.11
2019-01-02T08:59:41.860Z,1004.17
2019-01-02T09:00:41.823Z,1004.12
2019-01-02T09:01:41.718Z,1004.10
2019-01-02T09:02:41.651Z,1004.02
2019-01-02T09:03:41.563Z,1004.03
2019-01-02T09:04:41.491Z,1003.95
2019-01-02T09:05:41.413Z,1003.96
2019-01-02T09:06:41.391Z,1003.92
2019-01-02T09:07:41.276Z,1003.91
2019-01-02T09:08:41.198Z,1003.94
2019-01-02T09:09:41.128Z,1003.96
2019-01-02T09:10:41.044Z,1003.94
2019-01-02T09:11:40.971Z,1004.01
2019-01-02T09:12:40.909Z,1003.97
2019-01-02T09:13:40.835Z,1003.96
2019-01-02T09:14:40.754Z,1003.98
2019-01-02T09:15:40.677Z,1003.96
2019-01-02T09:16:40.603Z,1003.94
2019-01-02T09:17:40.528Z,1003.99
2019-01-02T09:18:40.454Z,1004.00
2019-01-02T09:19:40.367Z,1004.02
2019-01-02T09:20:40.295Z,1004.02
2019-01-02T09:21:40.237Z,1004.07
2019-01-02T09:22:40.155Z,1004.05
2019-01-02T09:23:40.086Z,1004.07
2019-01-02T09:24:40.008Z,1004.04
2019-01-02T09:25:39.944Z,1004.06
2019-01-02T09:26:39.860Z,1003.99
2019-01-02T09:27:39.788Z,1004.05
2019-01-02T09:28:39.712Z,1003.96
2019-01-02T09:29:39.642Z,1003.93
2019-01-02T09:30:39.560Z,1004.04
2019-01-02T09:31:39.506Z,1004.08
2019-01-02T09:32:39.412Z,1003.96
2019-01-02T09:33:39.337Z,1003.96
2019-01-02T09:34:39.261Z,1003.97
2019-01-02T09:35:39.218Z,1003.91
2019-01-02T09:36:39.127Z,1003.96
2019-01-02T09:37:39.044Z,1003.96
2019-01-02T09:38:38.964Z,1004.07
2019-01-02T09:39:38.903Z,1004.08
2019-01-02T09:40:38.931Z,1004.03
2019-01-02T09:41:38.753Z,1004.02
2019-01-02T09:42:38.676Z,1004.07
2019-01-02T09:43:38.592Z,1004.04
2019-01-02T09:44:38.527Z,1004.12
2019-01-02T09:45:38.457Z,1004.13
2019-01-02T09:46:38.394Z,1004.05
2019-01-02T09:47:38.314Z,1004.06
2019-01-02T09:48:38.241Z,1004.13
2019-01-02T09:49:38.160Z,1004.11
2019-01-02T09:50:38.089Z,1004.14
2019-01-02T09:51:38.008Z,1004.15
2019-01-02T09:52:37.933Z,1004.21
2019-01-02T09:53:37.862Z,1004.16
2019-01-02T09:54:37.788Z,1004.13
2019-01-02T09:55:37.721Z,1004.25
2019-01-02T09:56:37.641Z,1004.18
2019-01-02T09:57:37.566Z,1004.27
2019-01-02T09:58:37.497Z,1004.15
2019-01-02T09:59:37.418Z,1004.11
2019-01-02T10:00:37.351Z,1004.06
2019-01-02T10:01:37.272Z,1004.02
2019-01-02T10:02:37.200Z,1004.05
2019-01-02T10:03:37.118Z,1004.03
2019-01-02T10:04:37.052Z,1004.05
2019-01-02T10:05:36.977Z,1003.99
2019-01-02T10:06:36.902Z,1004.01
2019-01-02T10:07:36.833Z,1004.12
2019-01-02T10:08:36.764Z,1003.92
2019-01-02T10:09:36.690Z,1003.95
2019-01-02T10:10:36.610Z,1003.84
2019-01-02T10:11:36.548Z,1003.98
2019-01-02T10:12:36.475Z,1004.07
2019-01-02T10:13:36.392Z,1003.97
2019-01-02T10:14:36.338Z,1003.94
2019-01-02T10:15:36.247Z,1003.87
2019-01-02T10:16:36.187Z,1003.95
2019-01-02T10:17:36.100Z,1003.96
2019-01-02T10:18:36.034Z,1003.99
2019-01-02T10:19:35.954Z,1003.95
2019-01-02T10:20:35.881Z,1004.01
2019-01-02T10:21:35.816Z,1003.97
2019-01-02T10:22:35.820Z,1004.00
2019-01-02T10:23:35.665Z,1004.01
2019-01-02T10:24:35.591Z,1003.97
2019-01-02T10:25:35.534Z,1003.93
2019-01-02T10:26:35.464Z,1004.06
2019-01-02T10:27:35.382Z,1004.02
2019-01-02T10:28:35.286Z,1003.97
2019-01-02T10:29:35.217Z,1004.06
2019-01-02T10:30:35.154Z,1003.89
2019-01-02T10:31:35.075Z,1004.00
2019-01-02T10:32:35.000Z,1003.95
2019-01-02T10:33:34.926Z,1004.07
2019-01-02T10:34:34.850Z,1004.00
2019-01-02T10:35:34.780Z,1003.99
2019-01-02T10:36:34.710Z,1003.98
2019-01-02T10:37:34.634Z,1004.00
2019-01-02T10:38:34.560Z,1003.92
2019-01-02T10:39:34.488Z,1003.94
2019-01-02T10:40:34.416Z,1004.03
2019-01-02T10:41:34.344Z,1003.89
2019-01-02T10:42:34.272Z,1003.85
2019-01-02T10:43:34.199Z,1003.87
2019-01-02T10:44:34.122Z,1003.90
2019-01-02T10:45:34.054Z,1003.79
2019-01-02T10:46:33.975Z,1003.75
2019-01-02T10:47:33.900Z,1003.85
2019-01-02T10:48:33.843Z,1003.81
2019-01-02T10:49:33.779Z,1003.80
2019-01-02T10:50:33.681Z,1003.90
2019-01-02T10:51:33.604Z,1003.74
2019-01-02T10:52:33.528Z,1003.87
2019-01-02T10:53:33.462Z,1003.80
2019-01-02T10:54:33.384Z,1003.85
2019-01-02T10:55:33.318Z,1003.85
2019-01-02T10:56:33.244Z,1003.78
2019-01-02T10:57:33.168Z,1003.80
2019-01-02T10:58:36.539Z,1003.70
2019-01-02T10:59:33.015Z,1003.59
2019-01-02T11:00:32.968Z,1003.68
2019-01-02T11:01:32.874Z,1003.59
2019-01-02T11:02:32.802Z,1003.61
2019-01-02T11:03:32.729Z,1003.44
2019-01-02T11:04:32.659Z,1003.55
2019-01-02T11:05:32.584Z,1003.54
2019-01-02T11:06:32.515Z,1003.55
2019-01-02T11:07:32.443Z,1003.53
2019-01-02T11:08:32.367Z,1003.47
2019-01-02T11:09:32.287Z,1003.44
2019-01-02T11:10:32.221Z,1003.43
2019-01-02T11:11:32.141Z,1003.44
2019-01-02T11:12:32.069Z,1003.32
2019-01-02T11:13:32.001Z,1003.31
2019-01-02T11:14:31.918Z,1003.35
2019-01-02T11:15:31.853Z,1003.36
2019-01-02T11:16:31.795Z,1003.34
2019-01-02T11:17:31.702Z,1003.32
2019-01-02T11:18:31.633Z,1003.32
2019-01-02T11:19:31.563Z,1003.31
2019-01-02T11:20:31.526Z,1003.30
2019-01-02T11:21:31.414Z,1003.36
2019-01-02T11:22:31.335Z,1003.26
2019-01-02T11:23:31.256Z,1003.38
2019-01-02T11:24:31.184Z,1003.40
2019-01-02T11:25:31.111Z,1003.27
2019-01-02T11:26:31.038Z,1003.34
2019-01-02T11:27:30.982Z,1003.27
2019-01-02T11:28:30.901Z,1003.32
2019-01-02T11:29:30.829Z,1003.13
2019-01-02T11:30:30.755Z,1003.29
2019-01-02T11:31:30.691Z,1003.23
2019-01-02T11:32:30.609Z,1003.15
2019-01-02T11:33:30.537Z,1003.23
2019-01-02T11:34:30.462Z,1003.33
2019-01-02T11:35:30.384Z,1003.19
2019-01-02T11:36:30.314Z,1003.09
2019-01-02T11:37:30.241Z,1003.14
2019-01-02T11:38:30.167Z,1003.18
2019-01-02T11:39:30.106Z,1003.07
2019-01-02T11:40:30.026Z,1003.08
2019-01-02T11:41:29.945Z,1003.11
2019-01-02T11:42:29.884Z,1003.05
2019-01-02T11:43:29.804Z,1003.03
2019-01-02T11:44:29.730Z,1003.05
2019-01-02T11:45:29.661Z,1003.04
2019-01-02T11:46:29.585Z,1003.02
2019-01-02T11:47:29.512Z,1003.03
2019-01-02T11:48:29.439Z,1002.82
2019-01-02T11:49:29.407Z,1002.85
2019-01-02T11:50:29.303Z,1002.90
2019-01-02T11:51:29.228Z,1002.81
2019-01-02T11:52:29.153Z,1002.88
2019-01-02T11:53:29.076Z,1002.81
2019-01-02T11:54:29.000Z,1002.85
2019-01-02T11:55:28.985Z,1002.87
2019-01-02T11:56:28.864Z,1002.93
2019-01-02T11:57:28.784Z,1002.93
2019-01-02T11:58:28.714Z,1002.85
2019-01-02T11:59:28.676Z,1003.01
2019-01-02T12:00:28.575Z,1002.94
2019-01-02T12:01:28.503Z,1002.98
2019-01-02T12:02:34.081Z,1002.97
2019-01-02T12:03:28.351Z,1002.88
2019-01-02T12:04:28.279Z,1002.90